Flight Track Log - Related Links

Times and Time Zones

All times are in EDT time to prevent confusion due to time zone crossing. See the DAL2236 flight status page for this flight to view local times or setup timezone preferences in your user account.

Time Position Orientation Groundspeed Altitude Reporting Facility
EDT Latitude Longitude Course Direction KTS MPH feet Rate Location/Type
Tue 05:01:29 PM 39.8833 -75.2167 270° West 171 197 800  Level Philadelphia TRACON
Tue 05:02:03 PM 39.8856 -75.1800 85° East 212 244 1,600 2,222 Climbing FAA TRACON SMA TRACON (SMA)
Tue 05:02:23 PM 39.8928 -75.1547 70° East 241 277 2,800 3,900 Climbing FAA TRACON SMA TRACON (SMA)
Tue 05:02:43 PM 39.9075 -75.1369 43° Northeast 249 287 4,200 3,450 Climbing FAA TRACON SMA TRACON (SMA)
Tue 05:03:03 PM 39.9339 -75.1328 North 270 311 5,100 3,150 Climbing FAA TRACON SMA TRACON (SMA)
Tue 05:03:23 PM 39.9544 -75.1425 340° North 256 295 6,300 3,450 Climbing FAA TRACON SMA TRACON (SMA)
Tue 05:03:43 PM 39.9761 -75.1547 337° Northwest 262 302 7,400 3,750 Climbing FAA TRACON SMA TRACON (SMA)
Tue 05:04:00 PM 39.8334 -75.6898 270° West  Level FlightAware Approximate
Tue 05:04:03 PM 39.9944 -75.1828 310° West 279 321 8,800  Level FAA TRACON SMA TRACON (SMA)
Tue 05:04:23 PM 39.9981 -75.2122 279° West 267 307 9,500 1,800 Climbing FAA TRACON SMA TRACON (SMA)
Tue 05:04:43 PM 39.9897 -75.2489 253° West 284 327 10,000 750 Climbing FAA TRACON SMA TRACON (SMA)
Tue 05:05:00 PM 39.8233 -75.8435 258° West  Level FlightAware Approximate
Tue 05:05:03 PM 39.9814 -75.2792 250° West 296 341 10,000  Level FAA TRACON SMA TRACON (SMA)
Tue 05:05:23 PM 39.9722 -75.3114 250° West 303 349 10,000  Level FAA TRACON SMA TRACON (SMA)
Tue 05:05:43 PM 39.9611 -75.3514 250° West 310 357 10,000 150 Level FAA TRACON SMA TRACON (SMA)
Tue 05:06:00 PM 39.8000 -75.9953 270° West  Level FlightAware Approximate
Tue 05:06:03 PM 39.9517 -75.3864 251° West 339 390 10,100  Level FAA TRACON SMA TRACON (SMA)
Tue 05:06:23 PM 39.9392 -75.4314 250° West 365 420 10,000 -146 Descending FAA TRACON SMA TRACON (SMA)
Tue 05:06:44 PM 39.9286 -75.4697 250° West 361 415 10,000  Level FAA TRACON SMA TRACON (SMA)
Tue 05:07:03 PM 39.9178 -75.5094 250° West 367 422 10,000  Level FAA TRACON SMA TRACON (SMA)
Tue 05:07:22 PM 39.9072 -75.5478 250° West 368 423 10,000 1,077 Level FAA TRACON SMA TRACON (SMA)
Tue 05:07:42 PM 39.8942 -75.5961 251° West 368 423 10,700 2,049 Climbing FAA TRACON SMA TRACON (SMA)
Tue 05:08:03 PM 39.8831 -75.6333 249° West 368 423 11,400 2,550 Climbing FAA TRACON SMA TRACON (SMA)
Tue 05:08:22 PM 39.8728 -75.6733 252° West 371 427 12,400 3,077 Climbing FAA TRACON SMA TRACON (SMA)
Tue 05:08:42 PM 39.8589 -75.7228 250° West 378 435 13,400 2,850 Climbing FAA TRACON SMA TRACON (SMA)
Tue 05:09:02 PM 39.8472 -75.7631 249° West 383 441 14,300 2,049 Climbing FAA TRACON SMA TRACON (SMA)
Tue 05:09:23 PM 39.8381 -75.8042 254° West 384 442 14,800 1,024 Climbing FAA TRACON SMA TRACON (SMA)
Tue 05:09:43 PM 39.8317 -75.8553 261° West 388 447 15,000 300 Climbing FAA TRACON SMA TRACON (SMA)
Tue 05:10:03 PM 39.8336 -75.8986 273° West 375 432 15,000  Level FAA TRACON SMA TRACON (SMA)
Tue 05:10:23 PM 39.8375 -75.9389 277° West 386 444 15,000  Level FAA TRACON SMA TRACON (SMA)
Tue 05:10:43 PM 39.8422 -75.9925 277° West 379 436 15,000 300 Level FAA TRACON SMA TRACON (SMA)
Tue 05:11:03 PM 39.8453 -76.0342 275° West 377 434 15,200 1,200 Climbing FAA TRACON SMA TRACON (SMA)
Tue 05:11:23 PM 39.8431 -76.0758 266° West 380 437 15,800 2,100 Climbing FAA TRACON SMA TRACON (SMA)
Tue 05:11:43 PM 39.8297 -76.1269 251° West 402 463 16,600 1,950 Climbing FAA TRACON SMA TRACON (SMA)
Tue 05:12:03 PM 39.8114 -76.1631 237° Southwest 411 473 17,100 1,950 Climbing FAA TRACON SMA TRACON (SMA)
Tue 05:12:23 PM 39.7892 -76.2000 232° Southwest 406 467 17,900 1,350 Climbing FAA TRACON SMA TRACON (SMA)
Tue 05:12:43 PM 39.7719 -76.2267 230° Southwest 413 475 18,000 150 Climbing FAA TRACON SMA TRACON (SMA)
Tue 05:13:03 PM 39.7719 -76.2267 30° Northeast 413 475 18,000 1,946 Level FAA TRACON SMA TRACON (SMA)
Tue 05:14:34 PM 39.6231 -76.4697 232° Southwest 434 499 21,600 2,225 Climbing Washington Center
Tue 05:15:34 PM 39.5386 -76.5981 230° Southwest 451 519 23,600 1,600 Climbing Washington Center
Tue 05:16:34 PM 39.4561 -76.7286 231° Southwest 464 534 24,800 1,600 Climbing Washington Center
Tue 05:17:34 PM 39.3714 -76.8642 231° Southwest 477 549 26,800 2,200 Climbing Washington Center
Tue 05:18:34 PM 39.2889 -76.9914 230° Southwest 482 555 29,200 2,500 Climbing Washington Center
Tue 05:19:34 PM 39.2122 -77.1158 232° Southwest 472 543 31,800 1,400 Climbing Washington Center
Tue 05:20:34 PM 39.1400 -77.2294 231° Southwest 450 518 32,000 100 Climbing Washington Center
Tue 05:21:34 PM 39.0631 -77.3481 230° Southwest 436 502 32,000  Level Washington Center
Tue 05:22:34 PM 38.9883 -77.4636 230° Southwest 436 502 32,000  Level Washington Center
Tue 05:23:34 PM 38.9200 -77.5686 230° Southwest 431 496 32,000  Level Washington Center
Tue 05:24:34 PM 38.8386 -77.6944 230° Southwest 431 496 32,000  Level Washington Center
Tue 05:25:34 PM 38.7681 -77.8042 231° Southwest 436 502 32,000  Level Washington Center
Tue 05:26:34 PM 38.6928 -77.9189 230° Southwest 442 509 32,000  Level Washington Center
Tue 05:27:34 PM 38.6175 -78.0336 230° Southwest 442 509 32,000  Level Washington Center
Tue 05:28:34 PM 38.5444 -78.1453 230° Southwest 429 494 32,000  Level Washington Center
Tue 05:29:34 PM 38.4711 -78.2594 231° Southwest 429 494 32,000  Level Washington Center
Tue 05:30:34 PM 38.3933 -78.3733 229° Southwest 429 494 32,000  Level Washington Center
Tue 05:31:34 PM 38.3197 -78.4869 230° Southwest 424 488 32,000  Level Washington Center
Tue 05:32:34 PM 38.2394 -78.6133 231° Southwest 424 488 32,000  Level Washington Center
Tue 05:33:34 PM 38.1658 -78.7239 230° Southwest 419 482 32,000  Level Washington Center
Tue 05:34:34 PM 38.0878 -78.8369 229° Southwest 419 482 32,000  Level Washington Center
Tue 05:35:34 PM 38.0225 -78.9367 230° Southwest 419 482 32,000  Level Washington Center
Tue 05:36:34 PM 37.9442 -79.0467 228° Southwest 419 482 32,000  Level Washington Center
Tue 05:37:34 PM 37.8678 -79.1589 229° Southwest 419 482 32,000  Level Washington Center
Tue 05:38:34 PM 37.7894 -79.2656 227° Southwest 424 488 32,000  Level Washington Center
Tue 05:39:34 PM 37.7089 -79.3744 227° Southwest 429 494 32,000  Level Washington Center
Tue 05:40:34 PM 37.6239 -79.4933 228° Southwest 429 494 32,000  Level Washington Center
Tue 05:41:34 PM 37.5517 -79.5919 227° Southwest 429 494 32,000  Level Washington Center
Tue 05:42:34 PM 37.4642 -79.7128 228° Southwest 429 494 32,000  Level Washington Center
Tue 05:43:34 PM 37.3811 -79.8261 227° Southwest 435 501 32,000  Level Washington Center
Tue 05:44:34 PM 37.3022 -79.9314 227° Southwest 430 495 32,000  Level Washington Center
Tue 05:46:41 PM 37.1333 -80.1572 227° Southwest 426 490 32,000  Level Atlanta Center
Tue 05:47:41 PM 37.0533 -80.2653 227° Southwest 426 490 32,000  Level Atlanta Center
Tue 05:48:41 PM 36.9753 -80.3703 227° Southwest 426 490 32,000  Level Atlanta Center
Tue 05:49:41 PM 36.9011 -80.4697 227° Southwest 426 490 32,000  Level Atlanta Center
Tue 05:50:41 PM 36.8225 -80.5717 226° Southwest 426 490 32,000  Level Atlanta Center
Tue 05:51:41 PM 36.7422 -80.6789 227° Southwest 426 490 32,000  Level Atlanta Center
Tue 05:52:41 PM 36.6636 -80.7831 227° Southwest 421 484 32,000  Level Atlanta Center
Tue 05:53:41 PM 36.5831 -80.8925 228° Southwest 421 484 32,000  Level Atlanta Center
Tue 05:54:41 PM 36.5044 -80.9964 227° Southwest 426 490 32,000  Level Atlanta Center
Tue 05:55:41 PM 36.4236 -81.1025 227° Southwest 426 490 32,000  Level Atlanta Center
Tue 05:56:41 PM 36.3428 -81.2136 228° Southwest 432 497 32,000  Level Atlanta Center
Tue 05:57:41 PM 36.2597 -81.3197 226° Southwest 432 497 32,000  Level Atlanta Center
Tue 05:58:41 PM 36.1703 -81.4358 226° Southwest 426 490 32,000  Level Atlanta Center
Tue 05:59:41 PM 36.0872 -81.5439 226° Southwest 431 496 32,000  Level Atlanta Center
Tue 06:00:41 PM 36.0058 -81.6517 227° Southwest 431 496 32,000  Level Atlanta Center
Tue 06:01:41 PM 35.9225 -81.7592 226° Southwest 433 498 32,000  Level Atlanta Center
Tue 06:02:41 PM 35.8408 -81.8664 227° Southwest 433 498 32,000  Level Atlanta Center
Tue 06:03:41 PM 35.7592 -81.9711 226° Southwest 433 498 32,000  Level Atlanta Center
Tue 06:04:41 PM 35.6775 -82.0753 226° Southwest 428 493 32,000  Level Atlanta Center
Tue 06:05:41 PM 35.5936 -82.1794 225° Southwest 433 498 32,000  Level Atlanta Center
Tue 06:06:41 PM 35.5075 -82.2808 224° Southwest 433 498 32,000 -400 Level Atlanta Center
Tue 06:07:41 PM 35.4192 -82.3822 223° Southwest 433 498 31,200 -950 Descending Atlanta Center
Tue 06:08:41 PM 35.3308 -82.4808 222° Southwest 433 498 30,100 -1,000 Descending Atlanta Center
Tue 06:09:41 PM 35.2506 -82.5686 222° Southwest 433 498 29,200 -1,050 Descending Atlanta Center
Tue 06:10:41 PM 35.1556 -82.6719 222° Southwest 433 498 28,000 -1,250 Descending Atlanta Center
Tue 06:11:41 PM 35.0669 -82.7700 222° Southwest 433 498 26,700 -1,200 Descending Atlanta Center
Tue 06:12:41 PM 34.9803 -82.8675 223° Southwest 439 505 25,600 -1,150 Descending Atlanta Center
Tue 06:13:41 PM 34.8997 -82.9522 221° Southwest 439 505 24,400 -800 Descending Atlanta Center
Tue 06:14:41 PM 34.8128 -83.0522 223° Southwest 434 499 24,000 -400 Descending Atlanta Center
Tue 06:15:41 PM 34.7136 -83.1594 222° Southwest 434 499 23,600 -800 Descending Atlanta Center
Tue 06:16:41 PM 34.6244 -83.2536 221° Southwest 434 499 22,400 -1,150 Descending Atlanta Center
Tue 06:17:41 PM 34.5394 -83.3528 224° Southwest 434 499 21,300 -1,150 Descending Atlanta Center
Tue 06:18:41 PM 34.4544 -83.4492 223° Southwest 434 499 20,100 -1,150 Descending Atlanta Center
Tue 06:19:41 PM 34.3672 -83.5406 221° Southwest 424 488 19,000 -1,300 Descending Atlanta Center
Tue 06:20:41 PM 34.2819 -83.6289 221° Southwest 418 481 17,500 -2,100 Descending Atlanta Center
Tue 06:21:41 PM 34.2028 -83.7172 223° Southwest 397 457 14,800 -1,750 Descending Atlanta Center
Tue 06:22:41 PM 34.1281 -83.8003 223° Southwest 379 436 14,000 -400 Descending Atlanta Center
Tue 06:23:41 PM 34.0633 -83.8708 222° Southwest 362 417 14,000 -387 Level Atlanta Center
Tue 06:24:14 PM 34.0167 -83.9167 219° Southwest 333 383 13,400 -1,290 Descending Atlanta TRACON
Tue 06:25:14 PM 33.9500 -84.0000 226° Southwest 331 381 12,000 -700 Descending Atlanta TRACON
Tue 06:26:14 PM 33.8833 -84.0667 220° Southwest 331 381 12,000  Level Atlanta TRACON
Tue 06:26:41 PM 33.8569 -84.0889 215° Southwest 337 388 12,000 100 Level Atlanta Center
Tue 06:27:14 PM 33.8000 -84.1333 213° Southwest 336 387 12,100  Climbing Atlanta TRACON
Tue 06:28:08 PM 33.7333 -84.1833 212° Southwest 317 365 12,000 -50 Descending Atlanta TRACON
Tue 06:29:14 PM 33.7333 -84.2833 270° West 255 293 12,000 -762 Level Atlanta TRACON
Tue 06:30:14 PM 33.7333 -84.3667 270° West 256 295 10,400 -1,800 Descending Atlanta TRACON
Tue 06:31:14 PM 33.7333 -84.4500 270° West 246 283 8,400 -2,000 Descending Atlanta TRACON
Tue 06:32:14 PM 33.7333 -84.5333 270° West 234 269 6,400 -2,053 Descending Atlanta TRACON
Tue 06:33:08 PM 33.7333 -84.6000 270° West 250 288 4,500 -1,263 Descending Atlanta TRACON
Tue 06:34:08 PM 33.6833 -84.6333 209° Southwest 188 216 4,000 -450 Descending Atlanta TRACON
Tue 06:35:08 PM 33.6500 -84.6000 140° Southeast 180 207 3,600 -400 Descending Atlanta TRACON

Login

Don't have an account? Register now (free) for customized features, flight alerts, and more!